sensor_id;sensor_type;location;lat;lon;timestamp;pressure;altitude;pressure_sealevel;temperature;humidity
63694;BME280;49839;51.798;10.954;2023-04-15T00:00:52;98240.06;;;6.64;nan
63694;BME280;49839;51.798;10.954;2023-04-15T00:03:20;98239.69;;;6.54;nan
63694;BME280;49839;51.798;10.954;2023-04-15T00:05:49;98243.38;;;6.50;nan
63694;BME280;49839;51.798;10.954;2023-04-15T00:08:17;98237.22;;;6.51;nan
63694;BME280;49839;51.798;10.954;2023-04-15T00:10:45;98237.56;;;6.45;nan
63694;BME280;49839;51.798;10.954;2023-04-15T00:13:13;98243.00;;;6.40;nan
63694;BME280;49839;51.798;10.954;2023-04-15T00:15:42;98241.31;;;6.39;nan
63694;BME280;49839;51.798;10.954;2023-04-15T00:18:10;98235.84;;;6.44;nan
63694;BME280;49839;51.798;10.954;2023-04-15T00:20:37;98232.13;;;6.48;nan
63694;BME280;49839;51.798;10.954;2023-04-15T00:23:07;98224.19;;;6.49;nan
63694;BME280;49839;51.798;10.954;2023-04-15T00:25:34;98228.53;;;6.50;nan
63694;BME280;49839;51.798;10.954;2023-04-15T00:28:02;98228.19;;;6.57;nan
63694;BME280;49839;51.798;10.954;2023-04-15T00:30:30;98225.75;;;6.54;nan
63694;BME280;49839;51.798;10.954;2023-04-15T00:32:59;98217.97;;;6.52;nan
63694;BME280;49839;51.798;10.954;2023-04-15T00:35:27;98223.88;;;6.56;nan
63694;BME280;49839;51.798;10.954;2023-04-15T00:37:58;98223.13;;;6.54;nan
63694;BME280;49839;51.798;10.954;2023-04-15T00:40:27;98226.06;;;6.47;nan
63694;BME280;49839;51.798;10.954;2023-04-15T00:42:54;98218.38;;;6.44;nan
63694;BME280;49839;51.798;10.954;2023-04-15T00:45:22;98214.91;;;6.44;nan
63694;BME280;49839;51.798;10.954;2023-04-15T00:47:50;98211.69;;;6.39;nan
63694;BME280;49839;51.798;10.954;2023-04-15T00:50:18;98206.88;;;6.31;nan
63694;BME280;49839;51.798;10.954;2023-04-15T00:52:45;98207.78;;;6.30;nan
63694;BME280;49839;51.798;10.954;2023-04-15T00:55:13;98203.63;;;6.26;nan
63694;BME280;49839;51.798;10.954;2023-04-15T00:57:43;98206.41;;;6.23;nan
63694;BME280;49839;51.798;10.954;2023-04-15T01:00:11;98204.72;;;6.22;nan
63694;BME280;49839;51.798;10.954;2023-04-15T01:05:33;98190.56;;;6.26;nan
63694;BME280;49839;51.798;10.954;2023-04-15T01:08:01;98209.84;;;6.23;nan
63694;BME280;49839;51.798;10.954;2023-04-15T01:10:30;98193.56;;;6.18;nan
63694;BME280;49839;51.798;10.954;2023-04-15T01:12:59;98201.56;;;6.15;nan
63694;BME280;49839;51.798;10.954;2023-04-15T01:15:26;98208.41;;;6.18;nan
63694;BME280;49839;51.798;10.954;2023-04-15T01:17:54;98203.34;;;6.15;nan
63694;BME280;49839;51.798;10.954;2023-04-15T01:20:22;98208.88;;;6.09;nan
63694;BME280;49839;51.798;10.954;2023-04-15T01:22:49;98211.50;;;6.09;nan
63694;BME280;49839;51.798;10.954;2023-04-15T01:25:19;98207.09;;;6.09;nan
63694;BME280;49839;51.798;10.954;2023-04-15T01:27:50;98207.09;;;6.09;nan
63694;BME280;49839;51.798;10.954;2023-04-15T01:30:18;98197.81;;;6.04;nan
63694;BME280;49839;51.798;10.954;2023-04-15T01:32:46;98199.56;;;6.03;nan
63694;BME280;49839;51.798;10.954;2023-04-15T01:35:13;98200.34;;;6.05;nan
63694;BME280;49839;51.798;10.954;2023-04-15T01:37:42;98193.41;;;6.04;nan
63694;BME280;49839;51.798;10.954;2023-04-15T01:40:10;98191.91;;;6.00;nan
63694;BME280;49839;51.798;10.954;2023-04-15T01:42:37;98183.22;;;6.00;nan
63694;BME280;49839;51.798;10.954;2023-04-15T01:45:07;98179.13;;;5.94;nan
63694;BME280;49839;51.798;10.954;2023-04-15T01:47:35;98176.72;;;5.89;nan
63694;BME280;49839;51.798;10.954;2023-04-15T01:50:04;98168.03;;;5.89;nan
63694;BME280;49839;51.798;10.954;2023-04-15T01:52:32;98178.50;;;5.89;nan
63694;BME280;49839;51.798;10.954;2023-04-15T01:54:59;98177.50;;;5.91;nan
63694;BME280;49839;51.798;10.954;2023-04-15T01:57:27;98185.47;;;5.88;nan
63694;BME280;49839;51.798;10.954;2023-04-15T01:59:55;98176.00;;;5.86;nan
63694;BME280;49839;51.798;10.954;2023-04-15T02:02:24;98174.56;;;5.80;nan
63694;BME280;49839;51.798;10.954;2023-04-15T02:04:51;98179.81;;;5.80;nan
63694;BME280;49839;51.798;10.954;2023-04-15T02:07:19;98171.25;;;5.77;nan
63694;BME280;49839;51.798;10.954;2023-04-15T02:09:47;98171.25;;;5.77;nan
63694;BME280;49839;51.798;10.954;2023-04-15T02:12:14;98180.56;;;5.82;nan
63694;BME280;49839;51.798;10.954;2023-04-15T02:14:42;98174.72;;;5.77;nan
63694;BME280;49839;51.798;10.954;2023-04-15T02:17:10;98182.09;;;5.69;nan
63694;BME280;49839;51.798;10.954;2023-04-15T02:19:39;98180.13;;;5.74;nan
63694;BME280;49839;51.798;10.954;2023-04-15T02:22:06;98174.34;;;5.67;nan
63694;BME280;49839;51.798;10.954;2023-04-15T02:24:34;98163.94;;;5.66;nan
63694;BME280;49839;51.798;10.954;2023-04-15T02:27:02;98166.56;;;5.66;nan
63694;BME280;49839;51.798;10.954;2023-04-15T02:29:30;98161.63;;;5.60;nan
63694;BME280;49839;51.798;10.954;2023-04-15T02:31:58;98171.88;;;5.64;nan
63694;BME280;49839;51.798;10.954;2023-04-15T02:34:26;98160.78;;;5.59;nan
63694;BME280;49839;51.798;10.954;2023-04-15T02:36:55;98165.19;;;5.59;nan
63694;BME280;49839;51.798;10.954;2023-04-15T02:39:23;98166.00;;;5.59;nan
63694;BME280;49839;51.798;10.954;2023-04-15T02:41:50;98173.81;;;5.61;nan
63694;BME280;49839;51.798;10.954;2023-04-15T02:44:18;98165.81;;;5.64;nan
63694;BME280;49839;51.798;10.954;2023-04-15T02:46:46;98167.41;;;5.66;nan
63694;BME280;49839;51.798;10.954;2023-04-15T02:49:16;98162.44;;;5.62;nan
63694;BME280;49839;51.798;10.954;2023-04-15T02:51:43;98161.59;;;5.61;nan
63694;BME280;49839;51.798;10.954;2023-04-15T02:54:15;98156.28;;;5.63;nan
63694;BME280;49839;51.798;10.954;2023-04-15T02:56:43;98163.34;;;5.61;nan
63694;BME280;49839;51.798;10.954;2023-04-15T02:59:10;98163.50;;;5.58;nan
63694;BME280;49839;51.798;10.954;2023-04-15T03:01:38;98169.34;;;5.63;nan
63694;BME280;49839;51.798;10.954;2023-04-15T03:04:06;98168.31;;;5.65;nan
63694;BME280;49839;51.798;10.954;2023-04-15T03:06:34;98166.72;;;5.63;nan
63694;BME280;49839;51.798;10.954;2023-04-15T03:09:02;98169.41;;;5.61;nan
63694;BME280;49839;51.798;10.954;2023-04-15T03:11:31;98168.59;;;5.61;nan
63694;BME280;49839;51.798;10.954;2023-04-15T03:14:00;98160.88;;;5.58;nan
63694;BME280;49839;51.798;10.954;2023-04-15T03:16:28;98161.81;;;5.57;nan
63694;BME280;49839;51.798;10.954;2023-04-15T03:18:56;98157.41;;;5.57;nan
63694;BME280;49839;51.798;10.954;2023-04-15T03:21:23;98163.50;;;5.58;nan
63694;BME280;49839;51.798;10.954;2023-04-15T03:23:51;98148.88;;;5.54;nan
63694;BME280;49839;51.798;10.954;2023-04-15T03:26:26;98142.81;;;5.53;nan
63694;BME280;49839;51.798;10.954;2023-04-15T03:28:55;98153.19;;;5.55;nan
63694;BME280;49839;51.798;10.954;2023-04-15T03:31:23;98143.72;;;5.52;nan
63694;BME280;49839;51.798;10.954;2023-04-15T03:33:51;98147.06;;;5.56;nan
63694;BME280;49839;51.798;10.954;2023-04-15T03:36:18;98150.50;;;5.56;nan
63694;BME280;49839;51.798;10.954;2023-04-15T03:38:46;98146.22;;;5.55;nan
63694;BME280;49839;51.798;10.954;2023-04-15T03:41:14;98127.28;;;5.50;nan
63694;BME280;49839;51.798;10.954;2023-04-15T03:43:42;98142.03;;;5.51;nan
63694;BME280;49839;51.798;10.954;2023-04-15T03:46:11;98140.28;;;5.52;nan
63694;BME280;49839;51.798;10.954;2023-04-15T03:48:39;98136.91;;;5.50;nan
63694;BME280;49839;51.798;10.954;2023-04-15T03:51:06;98136.69;;;5.54;nan
63694;BME280;49839;51.798;10.954;2023-04-15T03:53:34;98138.59;;;5.51;nan
63694;BME280;49839;51.798;10.954;2023-04-15T03:56:02;98143.81;;;5.51;nan
63694;BME280;49839;51.798;10.954;2023-04-15T03:58:29;98136.06;;;5.49;nan
63694;BME280;49839;51.798;10.954;2023-04-15T04:00:57;98141.28;;;5.49;nan
63694;BME280;49839;51.798;10.954;2023-04-15T04:03:26;98133.44;;;5.49;nan
63694;BME280;49839;51.798;10.954;2023-04-15T04:05:54;98126.75;;;5.43;nan
63694;BME280;49839;51.798;10.954;2023-04-15T04:08:21;98131.97;;;5.43;nan
63694;BME280;49839;51.798;10.954;2023-04-15T04:10:49;98139.06;;;5.41;nan
63694;BME280;49839;51.798;10.954;2023-04-15T04:13:16;98138.22;;;5.41;nan
63694;BME280;49839;51.798;10.954;2023-04-15T04:15:44;98141.66;;;5.41;nan
63694;BME280;49839;51.798;10.954;2023-04-15T04:18:12;98141.59;;;5.43;nan
63694;BME280;49839;51.798;10.954;2023-04-15T04:20:40;98140.81;;;5.41;nan
63694;BME280;49839;51.798;10.954;2023-04-15T04:23:08;98141.72;;;5.40;nan
63694;BME280;49839;51.798;10.954;2023-04-15T04:25:36;98142.72;;;5.37;nan
63694;BME280;49839;51.798;10.954;2023-04-15T04:28:04;98142.09;;;5.32;nan
63694;BME280;49839;51.798;10.954;2023-04-15T04:30:32;98144.63;;;5.34;nan
63694;BME280;49839;51.798;10.954;2023-04-15T04:32:59;98145.44;;;5.36;nan
63694;BME280;49839;51.798;10.954;2023-04-15T04:35:27;98145.44;;;5.36;nan
63694;BME280;49839;51.798;10.954;2023-04-15T04:37:56;98137.63;;;5.34;nan
63694;BME280;49839;51.798;10.954;2023-04-15T04:40:23;98134.19;;;5.34;nan
63694;BME280;49839;51.798;10.954;2023-04-15T04:42:51;98132.41;;;5.34;nan
63694;BME280;49839;51.798;10.954;2023-04-15T04:45:19;98124.53;;;5.36;nan
63694;BME280;49839;51.798;10.954;2023-04-15T04:47:47;98124.56;;;5.34;nan
63694;BME280;49839;51.798;10.954;2023-04-15T04:50:15;98115.00;;;5.35;nan
63694;BME280;49839;51.798;10.954;2023-04-15T04:52:42;98121.97;;;5.34;nan
63694;BME280;49839;51.798;10.954;2023-04-15T04:55:11;98121.13;;;5.34;nan
63694;BME280;49839;51.798;10.954;2023-04-15T04:57:39;98126.22;;;5.37;nan
63694;BME280;49839;51.798;10.954;2023-04-15T05:00:07;98117.53;;;5.36;nan
63694;BME280;49839;51.798;10.954;2023-04-15T05:02:35;98121.06;;;5.35;nan
63694;BME280;49839;51.798;10.954;2023-04-15T05:05:03;98122.84;;;5.35;nan
63694;BME280;49839;51.798;10.954;2023-04-15T05:07:32;98134.88;;;5.37;nan
63694;BME280;49839;51.798;10.954;2023-04-15T05:10:02;98140.97;;;5.38;nan
63694;BME280;49839;51.798;10.954;2023-04-15T05:12:31;98139.06;;;5.41;nan
63694;BME280;49839;51.798;10.954;2023-04-15T05:14:58;98147.03;;;5.38;nan
63694;BME280;49839;51.798;10.954;2023-04-15T05:17:26;98140.75;;;5.42;nan
63694;BME280;49839;51.798;10.954;2023-04-15T05:19:56;98137.13;;;5.45;nan
63694;BME280;49839;51.798;10.954;2023-04-15T05:22:24;98125.91;;;5.43;nan
63694;BME280;49839;51.798;10.954;2023-04-15T05:24:52;98135.50;;;5.42;nan
63694;BME280;49839;51.798;10.954;2023-04-15T05:27:19;98137.03;;;5.47;nan
63694;BME280;49839;51.798;10.954;2023-04-15T05:29:49;98133.53;;;5.48;nan
63694;BME280;49839;51.798;10.954;2023-04-15T05:32:16;98135.22;;;5.49;nan
63694;BME280;49839;51.798;10.954;2023-04-15T05:34:44;98144.81;;;5.48;nan
63694;BME280;49839;51.798;10.954;2023-04-15T05:37:12;98147.13;;;5.54;nan
63694;BME280;49839;51.798;10.954;2023-04-15T05:39:40;98140.97;;;5.55;nan
63694;BME280;49839;51.798;10.954;2023-04-15T05:42:08;98127.97;;;5.54;nan
63694;BME280;49839;51.798;10.954;2023-04-15T05:44:36;98141.03;;;5.54;nan
63694;BME280;49839;51.798;10.954;2023-04-15T05:47:05;98134.59;;;5.61;nan
63694;BME280;49839;51.798;10.954;2023-04-15T05:49:34;98135.44;;;5.61;nan
63694;BME280;49839;51.798;10.954;2023-04-15T05:52:01;98133.81;;;5.59;nan
63694;BME280;49839;51.798;10.954;2023-04-15T05:54:30;98142.34;;;5.62;nan
63694;BME280;49839;51.798;10.954;2023-04-15T05:56:57;98149.06;;;5.68;nan
63694;BME280;49839;51.798;10.954;2023-04-15T05:59:25;98149.91;;;5.68;nan
63694;BME280;49839;51.798;10.954;2023-04-15T06:01:53;98157.72;;;5.68;nan
63694;BME280;49839;51.798;10.954;2023-04-15T06:04:23;98155.75;;;5.74;nan
63694;BME280;49839;51.798;10.954;2023-04-15T06:06:51;98166.19;;;5.74;nan
63694;BME280;49839;51.798;10.954;2023-04-15T06:09:19;98168.34;;;5.83;nan
63694;BME280;49839;51.798;10.954;2023-04-15T06:11:46;98166.66;;;5.82;nan
63694;BME280;49839;51.798;10.954;2023-04-15T06:14:14;98171.78;;;5.83;nan
63694;BME280;49839;51.798;10.954;2023-04-15T06:16:42;98179.31;;;5.89;nan
63694;BME280;49839;51.798;10.954;2023-04-15T06:19:09;98183.56;;;5.92;nan
63694;BME280;49839;51.798;10.954;2023-04-15T06:21:39;98176.72;;;5.89;nan
63694;BME280;49839;51.798;10.954;2023-04-15T06:24:07;98181.00;;;5.90;nan
63694;BME280;49839;51.798;10.954;2023-04-15T06:26:34;98198.41;;;5.91;nan
63694;BME280;49839;51.798;10.954;2023-04-15T06:29:02;98202.72;;;5.92;nan
63694;BME280;49839;51.798;10.954;2023-04-15T06:31:30;98203.94;;;5.85;nan
63694;BME280;49839;51.798;10.954;2023-04-15T06:33:57;98199.50;;;5.87;nan
63694;BME280;49839;51.798;10.954;2023-04-15T06:36:25;98203.38;;;5.79;nan
63694;BME280;49839;51.798;10.954;2023-04-15T06:38:54;98199.53;;;5.86;nan
63694;BME280;49839;51.798;10.954;2023-04-15T06:41:22;98195.53;;;5.79;nan
63694;BME280;49839;51.798;10.954;2023-04-15T06:43:50;98185.94;;;5.79;nan
63694;BME280;49839;51.798;10.954;2023-04-15T06:46:18;98191.88;;;5.83;nan
63694;BME280;49839;51.798;10.954;2023-04-15T06:48:46;98196.25;;;5.82;nan
63694;BME280;49839;51.798;10.954;2023-04-15T06:51:13;98197.81;;;5.86;nan
63694;BME280;49839;51.798;10.954;2023-04-15T06:53:41;98192.22;;;5.94;nan
63694;BME280;49839;51.798;10.954;2023-04-15T06:56:10;98197.50;;;5.92;nan
63694;BME280;49839;51.798;10.954;2023-04-15T06:58:38;98186.31;;;5.89;nan
63694;BME280;49839;51.798;10.954;2023-04-15T07:01:05;98191.69;;;5.86;nan
63694;BME280;49839;51.798;10.954;2023-04-15T07:03:33;98197.81;;;5.86;nan
63694;BME280;49839;51.798;10.954;2023-04-15T07:06:01;98195.09;;;5.88;nan
63694;BME280;49839;51.798;10.954;2023-04-15T07:08:31;98196.50;;;5.95;nan
63694;BME280;49839;51.798;10.954;2023-04-15T07:10:59;98192.25;;;5.92;nan
63694;BME280;49839;51.798;10.954;2023-04-15T07:13:30;98201.81;;;5.93;nan
63694;BME280;49839;51.798;10.954;2023-04-15T07:15:57;98203.44;;;5.96;nan
63694;BME280;49839;51.798;10.954;2023-04-15T07:18:25;98190.44;;;5.94;nan
63694;BME280;49839;51.798;10.954;2023-04-15T07:20:53;98198.06;;;5.99;nan
63694;BME280;49839;51.798;10.954;2023-04-15T07:23:21;98192.97;;;5.96;nan
63694;BME280;49839;51.798;10.954;2023-04-15T07:25:49;98196.19;;;6.01;nan
63694;BME280;49839;51.798;10.954;2023-04-15T07:28:17;98200.72;;;5.97;nan
63694;BME280;49839;51.798;10.954;2023-04-15T07:30:46;98182.38;;;5.99;nan
63694;BME280;49839;51.798;10.954;2023-04-15T07:33:14;98188.13;;;6.06;nan
63694;BME280;49839;51.798;10.954;2023-04-15T07:35:42;98186.19;;;6.09;nan
63694;BME280;49839;51.798;10.954;2023-04-15T07:38:10;98184.41;;;6.10;nan
63694;BME280;49839;51.798;10.954;2023-04-15T07:40:39;98195.34;;;6.01;nan
63694;BME280;49839;51.798;10.954;2023-04-15T07:43:07;98198.13;;;5.97;nan
63694;BME280;49839;51.798;10.954;2023-04-15T07:45:35;98196.13;;;6.03;nan
63694;BME280;49839;51.798;10.954;2023-04-15T07:48:05;98192.75;;;6.01;nan
63694;BME280;49839;51.798;10.954;2023-04-15T07:50:33;98192.56;;;6.04;nan
63694;BME280;49839;51.798;10.954;2023-04-15T07:53:01;98197.50;;;6.10;nan
63694;BME280;49839;51.798;10.954;2023-04-15T07:55:29;98208.78;;;6.10;nan
63694;BME280;49839;51.798;10.954;2023-04-15T07:57:56;98219.13;;;6.13;nan
63694;BME280;49839;51.798;10.954;2023-04-15T08:00:24;98213.09;;;6.11;nan
63694;BME280;49839;51.798;10.954;2023-04-15T08:02:52;98220.88;;;6.13;nan
63694;BME280;49839;51.798;10.954;2023-04-15T08:05:21;98220.88;;;6.13;nan
63694;BME280;49839;51.798;10.954;2023-04-15T08:07:49;98223.66;;;6.10;nan
63694;BME280;49839;51.798;10.954;2023-04-15T08:10:17;98212.34;;;6.09;nan
63694;BME280;49839;51.798;10.954;2023-04-15T08:12:44;98211.28;;;6.13;nan
63694;BME280;49839;51.798;10.954;2023-04-15T08:15:14;98199.97;;;6.13;nan
63694;BME280;49839;51.798;10.954;2023-04-15T08:17:42;98206.97;;;6.12;nan
63694;BME280;49839;51.798;10.954;2023-04-15T08:20:10;98206.88;;;6.14;nan
63694;BME280;49839;51.798;10.954;2023-04-15T08:22:39;98212.56;;;6.22;nan
63694;BME280;49839;51.798;10.954;2023-04-15T08:25:08;98209.81;;;6.25;nan
63694;BME280;49839;51.798;10.954;2023-04-15T08:27:35;98212.56;;;6.22;nan
63694;BME280;49839;51.798;10.954;2023-04-15T08:30:04;98211.53;;;6.24;nan
63694;BME280;49839;51.798;10.954;2023-04-15T08:32:32;98217.38;;;6.30;nan
63694;BME280;49839;51.798;10.954;2023-04-15T08:34:59;98218.09;;;6.33;nan
63694;BME280;49839;51.798;10.954;2023-04-15T08:37:27;98226.94;;;6.31;nan
63694;BME280;49839;51.798;10.954;2023-04-15T08:39:56;98229.22;;;6.37;nan
63694;BME280;49839;51.798;10.954;2023-04-15T08:42:27;98230.06;;;6.37;nan
63694;BME280;49839;51.798;10.954;2023-04-15T08:44:58;98235.16;;;6.40;nan
63694;BME280;49839;51.798;10.954;2023-04-15T08:47:28;98232.31;;;6.45;nan
63694;BME280;49839;51.798;10.954;2023-04-15T08:49:57;98232.31;;;6.45;nan
63694;BME280;49839;51.798;10.954;2023-04-15T08:52:25;98232.31;;;6.45;nan
63694;BME280;49839;51.798;10.954;2023-04-15T08:54:57;98229.09;;;6.40;nan
63694;BME280;49839;51.798;10.954;2023-04-15T08:57:25;98237.69;;;6.42;nan
63694;BME280;49839;51.798;10.954;2023-04-15T08:59:55;98240.84;;;6.48;nan
63694;BME280;49839;51.798;10.954;2023-04-15T09:02:23;98237.56;;;6.45;nan
63694;BME280;49839;51.798;10.954;2023-04-15T09:04:52;98228.31;;;6.38;nan
63694;BME280;49839;51.798;10.954;2023-04-15T09:07:20;98242.09;;;6.41;nan
63694;BME280;49839;51.798;10.954;2023-04-15T09:09:48;98233.22;;;6.44;nan
63694;BME280;49839;51.798;10.954;2023-04-15T09:12:18;98241.53;;;6.52;nan
63694;BME280;49839;51.798;10.954;2023-04-15T09:14:45;98246.44;;;6.58;nan
63694;BME280;49839;51.798;10.954;2023-04-15T09:17:17;98254.22;;;6.60;nan
63694;BME280;49839;51.798;10.954;2023-04-15T09:19:46;98256.44;;;6.67;nan
63694;BME280;49839;51.798;10.954;2023-04-15T09:22:14;98258.97;;;6.69;nan
63694;BME280;49839;51.798;10.954;2023-04-15T09:24:42;98259.88;;;6.68;nan
63694;BME280;49839;51.798;10.954;2023-04-15T09:27:09;98256.34;;;6.69;nan
63694;BME280;49839;51.798;10.954;2023-04-15T09:29:40;98265.97;;;6.68;nan
63694;BME280;49839;51.798;10.954;2023-04-15T09:32:12;98252.03;;;6.68;nan
63694;BME280;49839;51.798;10.954;2023-04-15T09:34:40;98254.41;;;6.72;nan
63694;BME280;49839;51.798;10.954;2023-04-15T09:37:07;98256.66;;;6.63;nan
63694;BME280;49839;51.798;10.954;2023-04-15T09:39:47;98259.88;;;6.68;nan
63694;BME280;49839;51.798;10.954;2023-04-15T09:42:16;98265.91;;;6.70;nan
63694;BME280;49839;51.798;10.954;2023-04-15T09:44:51;98270.22;;;6.71;nan
63694;BME280;49839;51.798;10.954;2023-04-15T09:47:28;98280.50;;;6.74;nan
63694;BME280;49839;51.798;10.954;2023-04-15T09:49:57;98281.22;;;6.77;nan
63694;BME280;49839;51.798;10.954;2023-04-15T09:52:25;98293.19;;;6.82;nan
63694;BME280;49839;51.798;10.954;2023-04-15T09:54:55;98285.09;;;6.86;nan
63694;BME280;49839;51.798;10.954;2023-04-15T09:57:23;98290.56;;;6.82;nan
63694;BME280;49839;51.798;10.954;2023-04-15T09:59:52;98287.13;;;6.81;nan
63694;BME280;49839;51.798;10.954;2023-04-15T10:02:20;98288.75;;;6.84;nan
63694;BME280;49839;51.798;10.954;2023-04-15T10:04:49;98281.72;;;6.84;nan
63694;BME280;49839;51.798;10.954;2023-04-15T10:07:17;98281.53;;;6.71;nan
63694;BME280;49839;51.798;10.954;2023-04-15T10:09:47;98282.38;;;6.72;nan
63694;BME280;49839;51.798;10.954;2023-04-15T10:12:16;98279.16;;;6.67;nan
63694;BME280;49839;51.798;10.954;2023-04-15T10:14:46;98283.31;;;6.71;nan
63694;BME280;49839;51.798;10.954;2023-04-15T10:17:16;98288.59;;;6.69;nan
63694;BME280;49839;51.798;10.954;2023-04-15T10:19:44;98284.06;;;6.73;nan
63694;BME280;49839;51.798;10.954;2023-04-15T10:22:13;98285.75;;;6.74;nan
63694;BME280;49839;51.798;10.954;2023-04-15T10:24:42;98277.06;;;6.73;nan
63694;BME280;49839;51.798;10.954;2023-04-15T10:27:10;98285.94;;;6.71;nan
63694;BME280;49839;51.798;10.954;2023-04-15T10:29:38;98292.00;;;6.71;nan
63694;BME280;49839;51.798;10.954;2023-04-15T10:32:07;98283.97;;;6.74;nan
63694;BME280;49839;51.798;10.954;2023-04-15T10:34:37;98290.00;;;6.76;nan
63694;BME280;49839;51.798;10.954;2023-04-15T10:37:08;98295.22;;;6.76;nan
63694;BME280;49839;51.798;10.954;2023-04-15T10:39:38;98297.28;;;6.87;nan
63694;BME280;49839;51.798;10.954;2023-04-15T10:42:07;98290.25;;;6.88;nan
63694;BME280;49839;51.798;10.954;2023-04-15T10:44:35;98298.38;;;6.83;nan
63694;BME280;49839;51.798;10.954;2023-04-15T10:47:08;98301.84;;;6.84;nan
63694;BME280;49839;51.798;10.954;2023-04-15T10:49:46;98296.00;;;6.78;nan
63694;BME280;49839;51.798;10.954;2023-04-15T10:52:15;98309.94;;;6.79;nan
63694;BME280;49839;51.798;10.954;2023-04-15T10:54:43;98314.66;;;6.88;nan
63694;BME280;49839;51.798;10.954;2023-04-15T10:57:16;98305.31;;;6.84;nan
63694;BME280;49839;51.798;10.954;2023-04-15T11:00:10;98303.94;;;6.77;nan
63694;BME280;49839;51.798;10.954;2023-04-15T11:02:41;98316.19;;;6.76;nan
63694;BME280;49839;51.798;10.954;2023-04-15T11:05:11;98318.53;;;6.81;nan
63694;BME280;49839;51.798;10.954;2023-04-15T11:07:40;98317.59;;;6.82;nan
63694;BME280;49839;51.798;10.954;2023-04-15T11:12:56;98313.78;;;6.89;nan
63694;BME280;49839;51.798;10.954;2023-04-15T11:15:24;98319.59;;;6.94;nan
63694;BME280;49839;51.798;10.954;2023-04-15T11:17:54;98324.91;;;6.93;nan
63694;BME280;49839;51.798;10.954;2023-04-15T11:20:23;98327.63;;;6.91;nan
63694;BME280;49839;51.798;10.954;2023-04-15T11:22:52;98331.16;;;6.90;nan
63694;BME280;49839;51.798;10.954;2023-04-15T11:25:21;98335.63;;;6.88;nan
63694;BME280;49839;51.798;10.954;2023-04-15T11:27:49;98345.03;;;6.92;nan
63694;BME280;49839;51.798;10.954;2023-04-15T11:30:18;98334.38;;;6.95;nan
63694;BME280;49839;51.798;10.954;2023-04-15T11:32:47;98334.06;;;7.01;nan
63694;BME280;49839;51.798;10.954;2023-04-15T11:35:15;98344.47;;;7.03;nan
63694;BME280;49839;51.798;10.954;2023-04-15T11:37:45;98348.88;;;7.02;nan
63694;BME280;49839;51.798;10.954;2023-04-15T11:40:14;98346.06;;;7.05;nan
63694;BME280;49839;51.798;10.954;2023-04-15T11:42:43;98352.00;;;7.09;nan
63694;BME280;49839;51.798;10.954;2023-04-15T11:45:15;98356.22;;;7.12;nan
63694;BME280;49839;51.798;10.954;2023-04-15T11:47:42;98359.06;;;7.07;nan
63694;BME280;49839;51.798;10.954;2023-04-15T11:50:15;98355.63;;;7.06;nan
63694;BME280;49839;51.798;10.954;2023-04-15T11:52:52;98361.97;;;7.02;nan
63694;BME280;49839;51.798;10.954;2023-04-15T11:55:20;98357.47;;;7.04;nan
63694;BME280;49839;51.798;10.954;2023-04-15T11:57:49;98371.25;;;7.08;nan
63694;BME280;49839;51.798;10.954;2023-04-15T12:00:18;98365.03;;;7.11;nan
63694;BME280;49839;51.798;10.954;2023-04-15T12:02:46;98378.03;;;7.12;nan
63694;BME280;49839;51.798;10.954;2023-04-15T12:05:14;98364.31;;;7.07;nan
63694;BME280;49839;51.798;10.954;2023-04-15T12:07:59;98360.72;;;7.10;nan
63694;BME280;49839;51.798;10.954;2023-04-15T12:10:27;98368.72;;;7.06;nan
63694;BME280;49839;51.798;10.954;2023-04-15T12:12:54;98369.72;;;7.04;nan
63694;BME280;49839;51.798;10.954;2023-04-15T12:15:23;98374.75;;;7.09;nan
63694;BME280;49839;51.798;10.954;2023-04-15T12:17:53;98378.97;;;7.11;nan
63694;BME280;49839;51.798;10.954;2023-04-15T12:20:24;98386.81;;;7.11;nan
63694;BME280;49839;51.798;10.954;2023-04-15T12:22:51;98384.88;;;7.15;nan
63694;BME280;49839;51.798;10.954;2023-04-15T12:25:33;98379.25;;;7.22;nan
63694;BME280;49839;51.798;10.954;2023-04-15T12:28:01;98385.25;;;7.24;nan
63694;BME280;49839;51.798;10.954;2023-04-15T12:30:28;98394.78;;;7.25;nan
63694;BME280;49839;51.798;10.954;2023-04-15T12:32:56;98391.75;;;7.33;nan
63694;BME280;49839;51.798;10.954;2023-04-15T12:35:25;98398.38;;;7.40;nan
63694;BME280;49839;51.798;10.954;2023-04-15T12:37:52;98405.25;;;7.43;nan
63694;BME280;49839;51.798;10.954;2023-04-15T12:40:20;98407.97;;;7.41;nan
63694;BME280;49839;51.798;10.954;2023-04-15T12:42:49;98408.81;;;7.42;nan
63694;BME280;49839;51.798;10.954;2023-04-15T12:45:16;98412.88;;;7.47;nan
63694;BME280;49839;51.798;10.954;2023-04-15T12:47:44;98407.88;;;7.43;nan
63694;BME280;49839;51.798;10.954;2023-04-15T12:50:12;98419.94;;;7.45;nan
63694;BME280;49839;51.798;10.954;2023-04-15T12:52:39;98417.19;;;7.48;nan
63694;BME280;49839;51.798;10.954;2023-04-15T12:55:08;98425.28;;;7.44;nan
63694;BME280;49839;51.798;10.954;2023-04-15T12:57:36;98421.97;;;7.40;nan
63694;BME280;49839;51.798;10.954;2023-04-15T13:00:06;98427.28;;;7.39;nan
63694;BME280;49839;51.798;10.954;2023-04-15T13:02:34;98428.84;;;7.43;nan
63694;BME280;49839;51.798;10.954;2023-04-15T13:05:02;98435.00;;;7.42;nan
63694;BME280;49839;51.798;10.954;2023-04-15T13:07:30;98436.53;;;7.46;nan
63694;BME280;49839;51.798;10.954;2023-04-15T13:09:58;98428.75;;;7.44;nan
63694;BME280;49839;51.798;10.954;2023-04-15T13:12:26;98436.59;;;7.44;nan
63694;BME280;49839;51.798;10.954;2023-04-15T13:14:53;98436.38;;;7.49;nan
63694;BME280;49839;51.798;10.954;2023-04-15T13:17:23;98437.31;;;7.48;nan
63694;BME280;49839;51.798;10.954;2023-04-15T13:19:50;98446.69;;;7.52;nan
63694;BME280;49839;51.798;10.954;2023-04-15T13:22:18;98445.84;;;7.51;nan
63694;BME280;49839;51.798;10.954;2023-04-15T13:24:46;98448.63;;;7.48;nan
63694;BME280;49839;51.798;10.954;2023-04-15T13:27:13;98457.25;;;7.50;nan
63694;BME280;49839;51.798;10.954;2023-04-15T13:29:41;98450.09;;;7.54;nan
63694;BME280;49839;51.798;10.954;2023-04-15T13:32:09;98455.34;;;7.54;nan
63694;BME280;49839;51.798;10.954;2023-04-15T13:34:38;98458.63;;;7.57;nan